sensor_id;sensor_type;location;lat;lon;timestamp;temperature;humidity
59881;DHT22;45751;51.380;10.326;2024-02-26T00:02:02;1.80;99.90
59881;DHT22;45751;51.380;10.326;2024-02-26T00:04:28;1.80;99.90
59881;DHT22;45751;51.380;10.326;2024-02-26T00:06:54;1.80;99.90
59881;DHT22;45751;51.380;10.326;2024-02-26T00:09:23;1.70;99.90
59881;DHT22;45751;51.380;10.326;2024-02-26T00:11:49;1.70;99.90
59881;DHT22;45751;51.380;10.326;2024-02-26T00:14:14;1.70;99.90
59881;DHT22;45751;51.380;10.326;2024-02-26T00:16:40;1.70;99.90
59881;DHT22;45751;51.380;10.326;2024-02-26T00:19:07;1.70;99.90
59881;DHT22;45751;51.380;10.326;2024-02-26T00:21:33;1.70;99.90
59881;DHT22;45751;51.380;10.326;2024-02-26T00:23:58;1.70;99.90
59881;DHT22;45751;51.380;10.326;2024-02-26T00:26:24;1.60;99.90
59881;DHT22;45751;51.380;10.326;2024-02-26T00:28:50;1.60;99.90
59881;DHT22;45751;51.380;10.326;2024-02-26T00:31:16;1.70;99.90
59881;DHT22;45751;51.380;10.326;2024-02-26T00:33:42;1.70;99.90
59881;DHT22;45751;51.380;10.326;2024-02-26T00:36:07;1.70;99.90
59881;DHT22;45751;51.380;10.326;2024-02-26T00:38:33;1.70;99.90
59881;DHT22;45751;51.380;10.326;2024-02-26T00:40:59;1.70;99.90
59881;DHT22;45751;51.380;10.326;2024-02-26T00:43:25;1.70;99.90
59881;DHT22;45751;51.380;10.326;2024-02-26T00:45:50;1.70;99.90
59881;DHT22;45751;51.380;10.326;2024-02-26T00:48:17;1.60;99.90
59881;DHT22;45751;51.380;10.326;2024-02-26T00:50:43;1.70;99.90
59881;DHT22;45751;51.380;10.326;2024-02-26T00:53:09;1.70;99.90
59881;DHT22;45751;51.380;10.326;2024-02-26T00:55:35;1.70;99.90
59881;DHT22;45751;51.380;10.326;2024-02-26T00:58:00;1.70;99.90
59881;DHT22;45751;51.380;10.326;2024-02-26T01:00:26;1.70;99.90
59881;DHT22;45751;51.380;10.326;2024-02-26T01:02:52;1.70;99.90
59881;DHT22;45751;51.380;10.326;2024-02-26T01:05:18;1.70;99.90
59881;DHT22;45751;51.380;10.326;2024-02-26T01:07:44;1.70;99.90
59881;DHT22;45751;51.380;10.326;2024-02-26T01:10:09;1.70;99.90
59881;DHT22;45751;51.380;10.326;2024-02-26T01:12:35;1.70;99.90
59881;DHT22;45751;51.380;10.326;2024-02-26T01:15:02;1.80;99.90
59881;DHT22;45751;51.380;10.326;2024-02-26T01:17:29;1.70;99.90
59881;DHT22;45751;51.380;10.326;2024-02-26T01:19:55;1.70;99.90
59881;DHT22;45751;51.380;10.326;2024-02-26T01:22:20;1.70;99.90
59881;DHT22;45751;51.380;10.326;2024-02-26T01:24:46;1.70;99.90
59881;DHT22;45751;51.380;10.326;2024-02-26T01:27:12;1.70;99.90
59881;DHT22;45751;51.380;10.326;2024-02-26T01:29:39;1.70;99.90
59881;DHT22;45751;51.380;10.326;2024-02-26T01:32:05;1.70;99.90
59881;DHT22;45751;51.380;10.326;2024-02-26T01:34:31;1.80;99.90
59881;DHT22;45751;51.380;10.326;2024-02-26T01:36:57;1.70;99.90
59881;DHT22;45751;51.380;10.326;2024-02-26T01:39:23;1.70;99.90
59881;DHT22;45751;51.380;10.326;2024-02-26T01:41:49;1.70;99.90
59881;DHT22;45751;51.380;10.326;2024-02-26T01:44:15;1.70;99.90
59881;DHT22;45751;51.380;10.326;2024-02-26T01:46:40;1.70;99.90
59881;DHT22;45751;51.380;10.326;2024-02-26T01:49:08;1.70;99.90
59881;DHT22;45751;51.380;10.326;2024-02-26T01:51:38;1.70;99.90
59881;DHT22;45751;51.380;10.326;2024-02-26T01:54:05;1.70;99.90
59881;DHT22;45751;51.380;10.326;2024-02-26T01:56:31;1.70;99.90
59881;DHT22;45751;51.380;10.326;2024-02-26T01:58:58;1.70;99.90
59881;DHT22;45751;51.380;10.326;2024-02-26T02:01:25;1.70;99.90
59881;DHT22;45751;51.380;10.326;2024-02-26T02:03:54;1.70;99.90
59881;DHT22;45751;51.380;10.326;2024-02-26T02:06:20;1.70;99.90
59881;DHT22;45751;51.380;10.326;2024-02-26T02:08:46;1.70;99.90
59881;DHT22;45751;51.380;10.326;2024-02-26T02:11:12;1.70;99.90
59881;DHT22;45751;51.380;10.326;2024-02-26T02:13:40;1.70;99.90
59881;DHT22;45751;51.380;10.326;2024-02-26T02:16:06;1.70;99.90
59881;DHT22;45751;51.380;10.326;2024-02-26T02:18:33;1.70;99.90
59881;DHT22;45751;51.380;10.326;2024-02-26T02:21:02;1.70;99.90
59881;DHT22;45751;51.380;10.326;2024-02-26T02:23:28;1.70;99.90
59881;DHT22;45751;51.380;10.326;2024-02-26T02:25:54;1.70;99.90
59881;DHT22;45751;51.380;10.326;2024-02-26T02:28:21;1.70;99.90
59881;DHT22;45751;51.380;10.326;2024-02-26T02:30:48;1.70;99.90
59881;DHT22;45751;51.380;10.326;2024-02-26T02:33:15;1.70;99.90
59881;DHT22;45751;51.380;10.326;2024-02-26T02:35:41;1.70;99.90
59881;DHT22;45751;51.380;10.326;2024-02-26T02:38:07;1.70;99.90
59881;DHT22;45751;51.380;10.326;2024-02-26T02:40:33;1.60;99.90
59881;DHT22;45751;51.380;10.326;2024-02-26T02:42:58;1.70;99.90
59881;DHT22;45751;51.380;10.326;2024-02-26T02:45:25;1.70;99.90
59881;DHT22;45751;51.380;10.326;2024-02-26T02:47:51;1.70;99.90
59881;DHT22;45751;51.380;10.326;2024-02-26T02:50:17;1.60;99.90
59881;DHT22;45751;51.380;10.326;2024-02-26T02:52:42;1.60;99.90
59881;DHT22;45751;51.380;10.326;2024-02-26T02:55:08;1.60;99.90
59881;DHT22;45751;51.380;10.326;2024-02-26T02:57:34;1.70;99.90
59881;DHT22;45751;51.380;10.326;2024-02-26T03:00:00;1.60;99.90
59881;DHT22;45751;51.380;10.326;2024-02-26T03:02:25;1.60;99.90
59881;DHT22;45751;51.380;10.326;2024-02-26T03:04:51;1.60;99.90
59881;DHT22;45751;51.380;10.326;2024-02-26T03:07:17;1.60;99.90
59881;DHT22;45751;51.380;10.326;2024-02-26T03:09:43;1.60;99.90
59881;DHT22;45751;51.380;10.326;2024-02-26T03:12:09;1.60;99.90
59881;DHT22;45751;51.380;10.326;2024-02-26T03:14:34;1.60;99.90
59881;DHT22;45751;51.380;10.326;2024-02-26T03:17:00;1.60;99.90
59881;DHT22;45751;51.380;10.326;2024-02-26T03:19:26;1.60;99.90
59881;DHT22;45751;51.380;10.326;2024-02-26T03:21:51;1.60;99.90
59881;DHT22;45751;51.380;10.326;2024-02-26T03:24:17;1.60;99.90
59881;DHT22;45751;51.380;10.326;2024-02-26T03:26:43;1.60;99.90
59881;DHT22;45751;51.380;10.326;2024-02-26T03:29:09;1.60;99.90
59881;DHT22;45751;51.380;10.326;2024-02-26T03:31:34;1.60;99.90
59881;DHT22;45751;51.380;10.326;2024-02-26T03:34:00;1.60;99.90
59881;DHT22;45751;51.380;10.326;2024-02-26T03:36:26;1.60;99.90
59881;DHT22;45751;51.380;10.326;2024-02-26T03:38:52;1.60;99.90
59881;DHT22;45751;51.380;10.326;2024-02-26T03:41:18;1.60;99.90
59881;DHT22;45751;51.380;10.326;2024-02-26T03:43:43;1.60;99.90
59881;DHT22;45751;51.380;10.326;2024-02-26T03:46:10;1.60;99.90
59881;DHT22;45751;51.380;10.326;2024-02-26T03:48:40;1.50;99.90
59881;DHT22;45751;51.380;10.326;2024-02-26T03:51:05;1.60;99.90
59881;DHT22;45751;51.380;10.326;2024-02-26T03:53:31;1.70;99.90
59881;DHT22;45751;51.380;10.326;2024-02-26T03:55:57;1.60;99.90
59881;DHT22;45751;51.380;10.326;2024-02-26T03:58:22;1.70;99.90
59881;DHT22;45751;51.380;10.326;2024-02-26T04:00:48;1.60;99.90
59881;DHT22;45751;51.380;10.326;2024-02-26T04:03:14;1.60;99.90
59881;DHT22;45751;51.380;10.326;2024-02-26T04:05:40;1.70;99.90
59881;DHT22;45751;51.380;10.326;2024-02-26T04:08:06;1.70;99.90
59881;DHT22;45751;51.380;10.326;2024-02-26T04:10:33;1.70;99.90
59881;DHT22;45751;51.380;10.326;2024-02-26T04:13:05;1.70;99.90
59881;DHT22;45751;51.380;10.326;2024-02-26T04:15:31;1.70;99.90
59881;DHT22;45751;51.380;10.326;2024-02-26T04:17:57;1.70;99.90
59881;DHT22;45751;51.380;10.326;2024-02-26T04:20:23;1.80;99.90
59881;DHT22;45751;51.380;10.326;2024-02-26T04:22:49;1.80;99.90
59881;DHT22;45751;51.380;10.326;2024-02-26T04:25:14;1.80;99.90
59881;DHT22;45751;51.380;10.326;2024-02-26T04:27:41;1.80;99.90
59881;DHT22;45751;51.380;10.326;2024-02-26T04:30:07;1.80;99.90
59881;DHT22;45751;51.380;10.326;2024-02-26T04:32:34;1.80;99.90
59881;DHT22;45751;51.380;10.326;2024-02-26T04:35:00;1.80;99.90
59881;DHT22;45751;51.380;10.326;2024-02-26T04:37:26;1.80;99.90
59881;DHT22;45751;51.380;10.326;2024-02-26T04:40:00;1.90;99.90
59881;DHT22;45751;51.380;10.326;2024-02-26T04:42:26;1.80;99.90
59881;DHT22;45751;51.380;10.326;2024-02-26T04:44:52;1.80;99.90
59881;DHT22;45751;51.380;10.326;2024-02-26T04:47:18;1.90;99.90
59881;DHT22;45751;51.380;10.326;2024-02-26T04:49:44;1.90;99.90
59881;DHT22;45751;51.380;10.326;2024-02-26T04:52:09;1.90;99.90
59881;DHT22;45751;51.380;10.326;2024-02-26T04:54:35;1.90;99.90
59881;DHT22;45751;51.380;10.326;2024-02-26T04:57:01;1.90;99.90
59881;DHT22;45751;51.380;10.326;2024-02-26T04:59:27;1.90;99.90
59881;DHT22;45751;51.380;10.326;2024-02-26T05:01:52;1.90;99.90
59881;DHT22;45751;51.380;10.326;2024-02-26T05:04:18;2.00;99.90
59881;DHT22;45751;51.380;10.326;2024-02-26T05:06:44;1.90;99.90
59881;DHT22;45751;51.380;10.326;2024-02-26T05:09:10;2.10;99.90
59881;DHT22;45751;51.380;10.326;2024-02-26T05:11:35;1.90;99.90
59881;DHT22;45751;51.380;10.326;2024-02-26T05:14:01;1.90;99.90
59881;DHT22;45751;51.380;10.326;2024-02-26T05:16:27;2.00;99.90
59881;DHT22;45751;51.380;10.326;2024-02-26T05:18:55;2.00;99.90
59881;DHT22;45751;51.380;10.326;2024-02-26T05:21:21;2.00;99.90
59881;DHT22;45751;51.380;10.326;2024-02-26T05:23:47;2.00;99.90
59881;DHT22;45751;51.380;10.326;2024-02-26T05:26:21;2.00;99.90
59881;DHT22;45751;51.380;10.326;2024-02-26T05:28:47;2.00;99.90
59881;DHT22;45751;51.380;10.326;2024-02-26T05:31:13;2.10;99.90
59881;DHT22;45751;51.380;10.326;2024-02-26T05:33:39;2.10;99.90
59881;DHT22;45751;51.380;10.326;2024-02-26T05:36:06;2.10;99.90
59881;DHT22;45751;51.380;10.326;2024-02-26T05:38:31;2.20;99.90
59881;DHT22;45751;51.380;10.326;2024-02-26T05:41:01;2.30;99.90
59881;DHT22;45751;51.380;10.326;2024-02-26T05:43:27;2.30;99.90
59881;DHT22;45751;51.380;10.326;2024-02-26T05:45:53;2.30;99.90
59881;DHT22;45751;51.380;10.326;2024-02-26T05:48:19;2.40;99.90
59881;DHT22;45751;51.380;10.326;2024-02-26T05:50:48;2.50;99.90
59881;DHT22;45751;51.380;10.326;2024-02-26T05:53:15;2.40;99.90
59881;DHT22;45751;51.380;10.326;2024-02-26T05:55:40;2.40;99.90
59881;DHT22;45751;51.380;10.326;2024-02-26T05:58:06;2.50;99.90
59881;DHT22;45751;51.380;10.326;2024-02-26T06:00:35;2.40;99.90
59881;DHT22;45751;51.380;10.326;2024-02-26T06:03:00;2.50;99.90
59881;DHT22;45751;51.380;10.326;2024-02-26T06:05:27;2.50;99.90
59881;DHT22;45751;51.380;10.326;2024-02-26T06:07:53;2.50;99.90
59881;DHT22;45751;51.380;10.326;2024-02-26T06:10:22;2.50;99.90
59881;DHT22;45751;51.380;10.326;2024-02-26T06:12:47;2.50;99.90
59881;DHT22;45751;51.380;10.326;2024-02-26T06:15:13;2.50;99.90
59881;DHT22;45751;51.380;10.326;2024-02-26T06:17:39;2.60;99.90
59881;DHT22;45751;51.380;10.326;2024-02-26T06:20:05;2.50;99.90
59881;DHT22;45751;51.380;10.326;2024-02-26T06:22:32;2.50;99.90
59881;DHT22;45751;51.380;10.326;2024-02-26T06:24:57;2.50;99.90
59881;DHT22;45751;51.380;10.326;2024-02-26T06:27:23;2.60;99.90
59881;DHT22;45751;51.380;10.326;2024-02-26T06:29:49;2.60;99.90
59881;DHT22;45751;51.380;10.326;2024-02-26T06:32:15;2.50;99.90
59881;DHT22;45751;51.380;10.326;2024-02-26T06:34:41;2.60;99.90
59881;DHT22;45751;51.380;10.326;2024-02-26T06:37:08;2.60;99.90
59881;DHT22;45751;51.380;10.326;2024-02-26T06:39:33;2.60;99.90
59881;DHT22;45751;51.380;10.326;2024-02-26T06:42:00;2.60;99.90
59881;DHT22;45751;51.380;10.326;2024-02-26T06:44:27;2.60;99.90
59881;DHT22;45751;51.380;10.326;2024-02-26T06:46:58;2.60;99.90
59881;DHT22;45751;51.380;10.326;2024-02-26T06:49:24;2.60;99.90
59881;DHT22;45751;51.380;10.326;2024-02-26T06:51:50;2.60;99.90
59881;DHT22;45751;51.380;10.326;2024-02-26T06:54:16;2.60;99.90
59881;DHT22;45751;51.380;10.326;2024-02-26T06:56:42;2.60;99.90
59881;DHT22;45751;51.380;10.326;2024-02-26T06:59:07;2.80;99.90
59881;DHT22;45751;51.380;10.326;2024-02-26T07:01:33;2.70;99.90
59881;DHT22;45751;51.380;10.326;2024-02-26T07:03:59;2.70;99.90
59881;DHT22;45751;51.380;10.326;2024-02-26T07:06:25;2.70;99.90
59881;DHT22;45751;51.380;10.326;2024-02-26T07:08:51;2.70;99.90
59881;DHT22;45751;51.380;10.326;2024-02-26T07:11:16;2.70;99.90
59881;DHT22;45751;51.380;10.326;2024-02-26T07:13:42;2.80;99.90
59881;DHT22;45751;51.380;10.326;2024-02-26T07:16:09;2.80;99.90
59881;DHT22;45751;51.380;10.326;2024-02-26T07:18:35;2.90;99.90
59881;DHT22;45751;51.380;10.326;2024-02-26T07:21:04;2.80;99.90
59881;DHT22;45751;51.380;10.326;2024-02-26T07:23:30;2.90;99.90
59881;DHT22;45751;51.380;10.326;2024-02-26T07:25:56;2.90;99.90
59881;DHT22;45751;51.380;10.326;2024-02-26T07:28:22;2.90;99.90
59881;DHT22;45751;51.380;10.326;2024-02-26T07:30:48;2.90;99.90
59881;DHT22;45751;51.380;10.326;2024-02-26T07:33:14;2.90;99.90
59881;DHT22;45751;51.380;10.326;2024-02-26T07:35:40;2.90;99.90
59881;DHT22;45751;51.380;10.326;2024-02-26T07:38:05;2.90;99.90
59881;DHT22;45751;51.380;10.326;2024-02-26T07:40:31;3.00;99.90
59881;DHT22;45751;51.380;10.326;2024-02-26T07:42:57;3.10;99.90
59881;DHT22;45751;51.380;10.326;2024-02-26T07:45:23;3.00;99.90
59881;DHT22;45751;51.380;10.326;2024-02-26T07:47:48;3.10;99.90
59881;DHT22;45751;51.380;10.326;2024-02-26T07:50:14;3.10;99.90
59881;DHT22;45751;51.380;10.326;2024-02-26T07:52:40;3.10;99.90
59881;DHT22;45751;51.380;10.326;2024-02-26T07:55:06;3.10;99.90
59881;DHT22;45751;51.380;10.326;2024-02-26T07:57:32;3.10;99.90
59881;DHT22;45751;51.380;10.326;2024-02-26T08:00:02;3.10;99.90
59881;DHT22;45751;51.380;10.326;2024-02-26T08:02:30;3.20;99.90
59881;DHT22;45751;51.380;10.326;2024-02-26T08:04:55;3.20;99.90
59881;DHT22;45751;51.380;10.326;2024-02-26T08:07:21;3.30;99.90
59881;DHT22;45751;51.380;10.326;2024-02-26T08:09:47;3.30;99.90
59881;DHT22;45751;51.380;10.326;2024-02-26T08:12:13;3.30;99.90
59881;DHT22;45751;51.380;10.326;2024-02-26T08:14:39;3.30;99.90
59881;DHT22;45751;51.380;10.326;2024-02-26T08:17:05;3.40;99.90
59881;DHT22;45751;51.380;10.326;2024-02-26T08:19:31;3.40;99.90
59881;DHT22;45751;51.380;10.326;2024-02-26T08:21:57;3.40;99.90
59881;DHT22;45751;51.380;10.326;2024-02-26T08:24:23;3.40;99.90
59881;DHT22;45751;51.380;10.326;2024-02-26T08:26:49;3.40;99.90
59881;DHT22;45751;51.380;10.326;2024-02-26T08:29:15;3.40;99.90
59881;DHT22;45751;51.380;10.326;2024-02-26T08:31:40;3.40;99.90
59881;DHT22;45751;51.380;10.326;2024-02-26T08:34:06;3.40;99.90
59881;DHT22;45751;51.380;10.326;2024-02-26T08:36:33;3.40;99.90
59881;DHT22;45751;51.380;10.326;2024-02-26T08:38:59;3.50;99.90
59881;DHT22;45751;51.380;10.326;2024-02-26T08:41:25;3.50;99.90
59881;DHT22;45751;51.380;10.326;2024-02-26T08:43:51;3.60;99.90
59881;DHT22;45751;51.380;10.326;2024-02-26T08:46:17;3.50;99.90
59881;DHT22;45751;51.380;10.326;2024-02-26T08:48:43;3.50;99.90
59881;DHT22;45751;51.380;10.326;2024-02-26T08:51:09;3.60;99.90
59881;DHT22;45751;51.380;10.326;2024-02-26T08:53:38;3.60;99.90
59881;DHT22;45751;51.380;10.326;2024-02-26T08:56:04;3.70;99.90
59881;DHT22;45751;51.380;10.326;2024-02-26T08:58:30;3.70;99.90
59881;DHT22;45751;51.380;10.326;2024-02-26T09:00:56;3.80;99.90
59881;DHT22;45751;51.380;10.326;2024-02-26T09:03:22;3.80;99.90
59881;DHT22;45751;51.380;10.326;2024-02-26T09:05:48;3.70;99.90
59881;DHT22;45751;51.380;10.326;2024-02-26T09:08:14;3.90;99.90
59881;DHT22;45751;51.380;10.326;2024-02-26T09:10:41;3.80;99.90
59881;DHT22;45751;51.380;10.326;2024-02-26T09:13:07;3.90;99.90
59881;DHT22;45751;51.380;10.326;2024-02-26T09:15:33;3.90;99.90
59881;DHT22;45751;51.380;10.326;2024-02-26T09:17:59;4.00;99.90
59881;DHT22;45751;51.380;10.326;2024-02-26T09:20:24;4.00;99.90
59881;DHT22;45751;51.380;10.326;2024-02-26T09:22:50;4.00;99.90
59881;DHT22;45751;51.380;10.326;2024-02-26T09:25:17;4.00;99.90
59881;DHT22;45751;51.380;10.326;2024-02-26T09:27:43;4.10;99.90
59881;DHT22;45751;51.380;10.326;2024-02-26T09:30:11;4.10;99.90
59881;DHT22;45751;51.380;10.326;2024-02-26T09:32:37;4.10;99.90
59881;DHT22;45751;51.380;10.326;2024-02-26T09:35:04;4.20;99.90
59881;DHT22;45751;51.380;10.326;2024-02-26T09:37:30;4.20;99.90
59881;DHT22;45751;51.380;10.326;2024-02-26T09:39:55;4.30;99.90
59881;DHT22;45751;51.380;10.326;2024-02-26T09:42:25;4.30;99.90
59881;DHT22;45751;51.380;10.326;2024-02-26T09:44:54;4.30;99.90
59881;DHT22;45751;51.380;10.326;2024-02-26T09:47:22;4.40;99.90
59881;DHT22;45751;51.380;10.326;2024-02-26T09:49:49;4.40;99.90
59881;DHT22;45751;51.380;10.326;2024-02-26T09:52:16;4.40;99.90
59881;DHT22;45751;51.380;10.326;2024-02-26T09:54:45;4.50;99.90
59881;DHT22;45751;51.380;10.326;2024-02-26T09:57:14;4.50;99.90
59881;DHT22;45751;51.380;10.326;2024-02-26T09:59:43;4.50;99.90
59881;DHT22;45751;51.380;10.326;2024-02-26T10:02:13;4.50;99.90
59881;DHT22;45751;51.380;10.326;2024-02-26T10:04:42;4.60;99.90
59881;DHT22;45751;51.380;10.326;2024-02-26T10:07:13;4.60;99.90
59881;DHT22;45751;51.380;10.326;2024-02-26T10:09:39;4.60;99.90
59881;DHT22;45751;51.380;10.326;2024-02-26T10:12:07;4.70;99.90
59881;DHT22;45751;51.380;10.326;2024-02-26T10:14:34;4.70;99.90
59881;DHT22;45751;51.380;10.326;2024-02-26T10:17:00;4.70;99.90
59881;DHT22;45751;51.380;10.326;2024-02-26T10:19:30;4.70;99.90
59881;DHT22;45751;51.380;10.326;2024-02-26T10:21:57;4.70;99.90
59881;DHT22;45751;51.380;10.326;2024-02-26T10:24:24;4.80;99.90
59881;DHT22;45751;51.380;10.326;2024-02-26T10:26:54;4.80;99.90
59881;DHT22;45751;51.380;10.326;2024-02-26T10:29:21;4.80;99.90
59881;DHT22;45751;51.380;10.326;2024-02-26T10:31:47;4.80;99.90
59881;DHT22;45751;51.380;10.326;2024-02-26T10:34:15;4.80;99.90
59881;DHT22;45751;51.380;10.326;2024-02-26T10:36:41;4.90;99.90
59881;DHT22;45751;51.380;10.326;2024-02-26T10:39:07;4.90;99.90
59881;DHT22;45751;51.380;10.326;2024-02-26T10:41:33;5.00;99.90
59881;DHT22;45751;51.380;10.326;2024-02-26T10:44:00;5.00;99.90
59881;DHT22;45751;51.380;10.326;2024-02-26T10:46:26;5.00;99.90
59881;DHT22;45751;51.380;10.326;2024-02-26T10:48:53;5.10;99.90
59881;DHT22;45751;51.380;10.326;2024-02-26T10:51:26;5.10;99.90
59881;DHT22;45751;51.380;10.326;2024-02-26T10:53:55;5.20;99.90
59881;DHT22;45751;51.380;10.326;2024-02-26T10:56:29;5.30;99.90
59881;DHT22;45751;51.380;10.326;2024-02-26T10:58:58;5.30;99.90
59881;DHT22;45751;51.380;10.326;2024-02-26T11:01:25;5.40;99.90
59881;DHT22;45751;51.380;10.326;2024-02-26T11:03:53;5.50;99.90
59881;DHT22;45751;51.380;10.326;2024-02-26T11:06:20;5.60;99.90
59881;DHT22;45751;51.380;10.326;2024-02-26T11:08:50;5.60;99.90
59881;DHT22;45751;51.380;10.326;2024-02-26T11:11:22;5.70;99.90
59881;DHT22;45751;51.380;10.326;2024-02-26T11:13:49;5.80;99.90
59881;DHT22;45751;51.380;10.326;2024-02-26T11:16:21;5.80;99.90
59881;DHT22;45751;51.380;10.326;2024-02-26T11:18:48;5.90;99.90
59881;DHT22;45751;51.380;10.326;2024-02-26T11:21:17;6.00;99.90
59881;DHT22;45751;51.380;10.326;2024-02-26T11:23:53;5.90;99.90
59881;DHT22;45751;51.380;10.326;2024-02-26T11:26:20;6.00;99.90
59881;DHT22;45751;51.380;10.326;2024-02-26T11:28:47;6.20;99.90
59881;DHT22;45751;51.380;10.326;2024-02-26T11:31:13;6.20;99.90
59881;DHT22;45751;51.380;10.326;2024-02-26T11:33:40;6.20;99.90
59881;DHT22;45751;51.380;10.326;2024-02-26T11:36:12;6.30;99.90
59881;DHT22;45751;51.380;10.326;2024-02-26T11:38:39;6.30;99.90
59881;DHT22;45751;51.380;10.326;2024-02-26T11:41:06;6.30;99.90
59881;DHT22;45751;51.380;10.326;2024-02-26T11:43:53;6.30;99.90
59881;DHT22;45751;51.380;10.326;2024-02-26T11:46:41;6.30;99.90
59881;DHT22;45751;51.380;10.326;2024-02-26T11:51:56;6.40;99.90
59881;DHT22;45751;51.380;10.326;2024-02-26T11:54:51;6.40;99.90
59881;DHT22;45751;51.380;10.326;2024-02-26T11:59:49;6.40;99.90
59881;DHT22;45751;51.380;10.326;2024-02-26T12:02:45;6.40;99.90
59881;DHT22;45751;51.380;10.326;2024-02-26T12:05:22;6.40;99.90
59881;DHT22;45751;51.380;10.326;2024-02-26T12:08:03;6.40;99.90
59881;DHT22;45751;51.380;10.326;2024-02-26T12:10:34;6.50;99.90
59881;DHT22;45751;51.380;10.326;2024-02-26T12:15:33;6.50;99.90
59881;DHT22;45751;51.380;10.326;2024-02-26T12:18:04;6.50;99.90
59881;DHT22;45751;51.380;10.326;2024-02-26T12:20:30;6.50;99.90
59881;DHT22;45751;51.380;10.326;2024-02-26T12:22:57;6.40;99.90
59881;DHT22;45751;51.380;10.326;2024-02-26T12:25:28;6.50;99.90
59881;DHT22;45751;51.380;10.326;2024-02-26T12:27:54;6.50;99.90
59881;DHT22;45751;51.380;10.326;2024-02-26T12:30:21;6.50;99.90
59881;DHT22;45751;51.380;10.326;2024-02-26T12:32:48;6.50;99.90
59881;DHT22;45751;51.380;10.326;2024-02-26T12:35:15;6.50;99.90
59881;DHT22;45751;51.380;10.326;2024-02-26T12:37:45;6.50;99.90
59881;DHT22;45751;51.380;10.326;2024-02-26T12:40:12;6.50;99.90
59881;DHT22;45751;51.380;10.326;2024-02-26T12:42:38;6.50;99.90
59881;DHT22;45751;51.380;10.326;2024-02-26T12:45:09;6.60;99.90
59881;DHT22;45751;51.380;10.326;2024-02-26T12:47:39;6.50;99.90
59881;DHT22;45751;51.380;10.326;2024-02-26T12:50:05;6.40;99.90
59881;DHT22;45751;51.380;10.326;2024-02-26T12:52:33;6.50;99.90
59881;DHT22;45751;51.380;10.326;2024-02-26T12:55:01;6.50;99.90
59881;DHT22;45751;51.380;10.326;2024-02-26T12:57:29;6.60;99.90
59881;DHT22;45751;51.380;10.326;2024-02-26T12:59:56;6.60;99.90
59881;DHT22;45751;51.380;10.326;2024-02-26T13:02:22;6.50;99.90
59881;DHT22;45751;51.380;10.326;2024-02-26T13:04:49;6.70;99.90
59881;DHT22;45751;51.380;10.326;2024-02-26T13:07:14;6.70;99.90
59881;DHT22;45751;51.380;10.326;2024-02-26T13:09:40;6.70;99.90
59881;DHT22;45751;51.380;10.326;2024-02-26T13:12:07;6.70;99.90
59881;DHT22;45751;51.380;10.326;2024-02-26T13:14:33;6.80;99.90
59881;DHT22;45751;51.380;10.326;2024-02-26T13:17:00;6.80;99.90
59881;DHT22;45751;51.380;10.326;2024-02-26T13:19:26;6.80;99.90
59881;DHT22;45751;51.380;10.326;2024-02-26T13:21:53;6.80;99.90
59881;DHT22;45751;51.380;10.326;2024-02-26T13:24:20;6.80;99.90
59881;DHT22;45751;51.380;10.326;2024-02-26T13:26:46;6.90;99.90
59881;DHT22;45751;51.380;10.326;2024-02-26T13:29:18;6.90;99.90
59881;DHT22;45751;51.380;10.326;2024-02-26T13:31:44;6.90;99.90
59881;DHT22;45751;51.380;10.326;2024-02-26T13:34:10;6.90;99.90
59881;DHT22;45751;51.380;10.326;2024-02-26T13:36:36;6.90;99.90
59881;DHT22;45751;51.380;10.326;2024-02-26T13:39:01;7.00;99.90
59881;DHT22;45751;51.380;10.326;2024-02-26T13:41:30;6.90;99.90
59881;DHT22;45751;51.380;10.326;2024-02-26T13:43:56;7.00;99.90
59881;DHT22;45751;51.380;10.326;2024-02-26T13:46:23;7.00;99.90
59881;DHT22;45751;51.380;10.326;2024-02-26T13:48:49;7.00;99.90
59881;DHT22;45751;51.380;10.326;2024-02-26T13:51:14;7.00;99.90
59881;DHT22;45751;51.380;10.326;2024-02-26T13:53:40;7.00;99.90
59881;DHT22;45751;51.380;10.326;2024-02-26T13:56:07;7.00;99.90
59881;DHT22;45751;51.380;10.326;2024-02-26T13:58:33;7.00;99.90
59881;DHT22;45751;51.380;10.326;2024-02-26T14:00:58;7.00;99.90
59881;DHT22;45751;51.380;10.326;2024-02-26T14:03:25;7.00;99.90
59881;DHT22;45751;51.380;10.326;2024-02-26T14:05:51;7.00;99.90
59881;DHT22;45751;51.380;10.326;2024-02-26T14:08:17;7.00;99.90
59881;DHT22;45751;51.380;10.326;2024-02-26T14:10:43;7.00;99.90
59881;DHT22;45751;51.380;10.326;2024-02-26T14:13:09;7.00;99.90
59881;DHT22;45751;51.380;10.326;2024-02-26T14:15:35;7.00;99.90
59881;DHT22;45751;51.380;10.326;2024-02-26T14:18:01;6.90;99.90
59881;DHT22;45751;51.380;10.326;2024-02-26T14:20:29;7.00;99.90
59881;DHT22;45751;51.380;10.326;2024-02-26T14:22:55;6.90;99.90
59881;DHT22;45751;51.380;10.326;2024-02-26T14:25:21;6.90;99.90
59881;DHT22;45751;51.380;10.326;2024-02-26T14:27:48;7.00;99.90
59881;DHT22;45751;51.380;10.326;2024-02-26T14:30:14;7.00;99.90
59881;DHT22;45751;51.380;10.326;2024-02-26T14:32:40;7.00;99.90
59881;DHT22;45751;51.380;10.326;2024-02-26T14:35:07;7.10;99.90
59881;DHT22;45751;51.380;10.326;2024-02-26T14:37:35;7.10;99.90
59881;DHT22;45751;51.380;10.326;2024-02-26T14:40:01;7.20;99.90
59881;DHT22;45751;51.380;10.326;2024-02-26T14:42:28;7.30;99.90
59881;DHT22;45751;51.380;10.326;2024-02-26T14:44:54;7.30;99.90
59881;DHT22;45751;51.380;10.326;2024-02-26T14:47:20;7.40;99.90
59881;DHT22;45751;51.380;10.326;2024-02-26T14:49:46;7.40;99.90
59881;DHT22;45751;51.380;10.326;2024-02-26T14:52:14;7.40;99.90
59881;DHT22;45751;51.380;10.326;2024-02-26T14:54:40;7.40;99.90
59881;DHT22;45751;51.380;10.326;2024-02-26T14:57:06;7.40;99.90
59881;DHT22;45751;51.380;10.326;2024-02-26T14:59:33;7.50;99.90
59881;DHT22;45751;51.380;10.326;2024-02-26T15:01:59;7.50;99.90
59881;DHT22;45751;51.380;10.326;2024-02-26T15:04:26;7.50;99.90
59881;DHT22;45751;51.380;10.326;2024-02-26T15:06:52;7.50;99.90
59881;DHT22;45751;51.380;10.326;2024-02-26T15:09:17;7.50;99.90
59881;DHT22;45751;51.380;10.326;2024-02-26T15:11:43;7.60;99.90
59881;DHT22;45751;51.380;10.326;2024-02-26T15:14:10;7.60;99.90
59881;DHT22;45751;51.380;10.326;2024-02-26T15:16:36;7.60;99.90
59881;DHT22;45751;51.380;10.326;2024-02-26T15:19:02;7.60;99.90
59881;DHT22;45751;51.380;10.326;2024-02-26T15:21:29;7.60;99.90
59881;DHT22;45751;51.380;10.326;2024-02-26T15:23:55;7.60;99.90
59881;DHT22;45751;51.380;10.326;2024-02-26T15:26:21;7.60;99.90
59881;DHT22;45751;51.380;10.326;2024-02-26T15:28:48;7.60;99.80
59881;DHT22;45751;51.380;10.326;2024-02-26T15:31:16;7.60;99.80
59881;DHT22;45751;51.380;10.326;2024-02-26T15:33:42;7.60;99.60
59881;DHT22;45751;51.380;10.326;2024-02-26T15:36:08;7.60;99.50